Weather reports worldwide

Advertisment
Elphin, United Kingdom (99153): temperature & dewpoint: 14.06.2019 13:00:00 - 20.06.2019 13:00:00 (BST)Elphin, United Kingdom (99153): precipitation: 14.06.2019 13:00:00 - 20.06.2019 13:00:00 (BST)
Date & Time tt [°C] td [°C] rr [mm]
20.06.2019 13:00:00 10,6 9,0 0,6
20.06.2019 12:00:00 11,4 7,7 0,0
20.06.2019 11:00:00 11,1 7,9 0,0
20.06.2019 10:00:00 10,0 7,9 0,2
20.06.2019 09:00:00 10,4 7,7 0,0
20.06.2019 08:00:00 10,2 6,5 0,0
20.06.2019 07:00:00 8,9 7,5 0,0
20.06.2019 06:00:00 6,9 6,1 0,0
20.06.2019 05:00:00 7,6 6,1 0,0
20.06.2019 04:00:00 6,3 5,1 0,0
20.06.2019 03:00:00 6,7 5,5 0,0
20.06.2019 02:00:00 6,4 5,2 0,0
20.06.2019 01:00:00 6,7 4,4 0,0
20.06.2019 00:00:00 8,8 6,2 0,0
19.06.2019 23:00:00 9,2 6,1 0,0
19.06.2019 22:00:00 11,3 6,4 0,0
19.06.2019 21:00:00 11,8 6,9 0,0
19.06.2019 20:00:00 13,5 7,2 0,0
19.06.2019 19:00:00 13,4 8,6 0,0
19.06.2019 18:00:00 11,4 8,5 0,0
19.06.2019 17:00:00 14,3 8,1 0,0
19.06.2019 16:00:00 15,8 10,1 0,0
19.06.2019 15:00:00 12,3 9,6 0,6
19.06.2019 14:00:00 13,4 9,9 0,0
19.06.2019 13:00:00 12,1 10,1 0,0
19.06.2019 12:00:00 11,7 10,0 0,0
19.06.2019 11:00:00 12,4 10,1 0,0
19.06.2019 10:00:00 12,0 9,7 0,0
19.06.2019 09:00:00 11,8 9,6 0,0
19.06.2019 08:00:00 11,0 9,6 0,2
19.06.2019 07:00:00 10,9 9,9 0,0
19.06.2019 06:00:00 9,6 9,1 0,0
19.06.2019 05:00:00 9,6 9,1 0,2
19.06.2019 04:00:00 10,0 9,0 0,2
19.06.2019 03:00:00 10,3 8,9 0,0
19.06.2019 02:00:00 10,0 9,0 0,0
19.06.2019 01:00:00 10,2 9,2 0,2
19.06.2019 00:00:00 10,2 9,0 0,0
18.06.2019 23:00:00 11,4 7,9 0,0
18.06.2019 22:00:00 11,7 7,9 0,0
18.06.2019 21:00:00 12,1 8,2 0,0
18.06.2019 20:00:00 12,5 8,4 0,0
18.06.2019 19:00:00 11,8 9,4 0,0
18.06.2019 18:00:00 11,7 9,2 0,2
18.06.2019 17:00:00 13,3 10,3 0,0
18.06.2019 16:00:00 12,8 9,8 1,6
18.06.2019 15:00:00 11,1 9,5 0,2
18.06.2019 14:00:00 12,8 8,5 0,0
18.06.2019 13:00:00 13,6 11,0 0,6
18.06.2019 12:00:00 11,9 9,6 2,0
18.06.2019 11:00:00 11,3 9,4 0,6
18.06.2019 10:00:00 11,5 9,6 0,4
18.06.2019 09:00:00 10,5 9,6 0,6
18.06.2019 08:00:00 9,5 8,6 3,4
18.06.2019 07:00:00 9,6 8,5 1,2
18.06.2019 06:00:00 9,7 8,3 1,2
18.06.2019 05:00:00 10,1 8,1 0,2
18.06.2019 04:00:00 10,8 6,9 0,0
18.06.2019 03:00:00 10,4 7,1 0,0
18.06.2019 02:00:00 10,1 7,3 0,0
18.06.2019 01:00:00 8,4 7,2 0,0
18.06.2019 00:00:00 8,9 7,4 0,0
17.06.2019 23:00:00 10,0 8,2 0,0
17.06.2019 22:00:00 10,5 8,4 0,0
17.06.2019 21:00:00 10,7 9,1 0,6
17.06.2019 20:00:00 11,1 9,3 0,2
17.06.2019 19:00:00 11,4 9,0 0,4
17.06.2019 18:00:00 11,9 9,6 0,0
17.06.2019 17:00:00 11,5 10,1 0,6
17.06.2019 16:00:00 11,7 9,0 0,0
17.06.2019 15:00:00 12,2 11,0 0,4
17.06.2019 14:00:00 11,5 8,8 0,6
17.06.2019 13:00:00 15,3 11,0 0,0
17.06.2019 12:00:00 12,0 10,6 0,4
17.06.2019 11:00:00 12,0 10,6 0,0
17.06.2019 10:00:00 10,9 9,0 0,0
17.06.2019 09:00:00 10,6 9,6 0,2
17.06.2019 08:00:00 9,7 9,1 0,8
17.06.2019 07:00:00 9,5 9,0 0,8
17.06.2019 06:00:00 9,2 8,7 0,0
17.06.2019 05:00:00 8,7 8,0 0,2
17.06.2019 04:00:00 9,1 8,1 0,4
17.06.2019 03:00:00 9,4 7,8 0,0
17.06.2019 02:00:00 8,7 7,4 0,0
17.06.2019 01:00:00 8,9 7,1 0,0
17.06.2019 00:00:00 8,8 7,3 0,0
16.06.2019 23:00:00 8,3 6,9 0,0
16.06.2019 22:00:00 10,2 7,3 0,0
16.06.2019 21:00:00 12,9 7,7 0,0
16.06.2019 20:00:00 12,6 7,4 0,0
16.06.2019 19:00:00 11,6 9,5 5,6
16.06.2019 18:00:00 12,0 8,0 0,2
16.06.2019 17:00:00 13,9 7,8 0,0
16.06.2019 16:00:00 14,2 9,3 0,2
16.06.2019 15:00:00 13,7 7,9 0,0
16.06.2019 14:00:00 13,2 7,7 0,0
16.06.2019 13:00:00 11,0 8,0 0,0
16.06.2019 12:00:00 13,0 8,1 0,0
16.06.2019 11:00:00 11,7 7,3 0,0
16.06.2019 10:00:00 11,9 8,2 0,0
16.06.2019 09:00:00 12,5 9,7 0,0
16.06.2019 08:00:00 11,2 10,4 0,0
16.06.2019 07:00:00 10,4 10,0 0,0
16.06.2019 06:00:00 9,9 9,6 1,2
16.06.2019 05:00:00 9,9 9,5 1,2
16.06.2019 04:00:00 10,2 9,2 0,0
16.06.2019 03:00:00 10,5 8,9 0,0
16.06.2019 02:00:00 10,4 8,7 0,0
16.06.2019 01:00:00 10,8 9,3 0,0
16.06.2019 00:00:00 11,0 9,1 0,0
15.06.2019 23:00:00 12,0 9,3 0,0
15.06.2019 22:00:00 13,3 9,7 0,0
15.06.2019 21:00:00 14,4 10,5 0,0
15.06.2019 20:00:00 16,2 9,3 0,0
15.06.2019 19:00:00 16,4 10,4 0,0
15.06.2019 18:00:00 16,3 11,2 0,0
15.06.2019 17:00:00 15,4 11,7 0,0
15.06.2019 16:00:00 14,1 12,5 0,2
15.06.2019 15:00:00 13,7 11,4 0,0
15.06.2019 14:00:00 14,3 10,1 0,0
15.06.2019 13:00:00 13,4 10,0 0,0
15.06.2019 12:00:00 14,0 9,8 0,0
15.06.2019 11:00:00 13,9 9,0 0,0
15.06.2019 10:00:00 13,5 7,9 0,0
15.06.2019 09:00:00 14,2 8,2 0,0
15.06.2019 08:00:00 12,9 9,0 0,0
15.06.2019 07:00:00 10,4 7,8 0,0
15.06.2019 06:00:00 9,9 7,1 0,0
15.06.2019 05:00:00 9,6 6,6 0,0
15.06.2019 04:00:00 9,7 6,5 0,0
15.06.2019 03:00:00 8,7 6,0 0,0
15.06.2019 02:00:00 8,7 5,8 0,0
15.06.2019 01:00:00 8,9 6,1 0,0
15.06.2019 00:00:00 6,1 5,7 0,0
14.06.2019 23:00:00 8,4 6,8 0,0
14.06.2019 22:00:00 10,3 7,0 0,0
14.06.2019 21:00:00 12,4 7,2 0,0
14.06.2019 20:00:00 12,0 8,2 0,0
14.06.2019 19:00:00 12,6 6,5 0,0
14.06.2019 18:00:00 12,9 8,4 0,0
14.06.2019 17:00:00 13,0 8,8 0,0
14.06.2019 16:00:00 12,2 8,1 0,6
14.06.2019 15:00:00 14,0 7,9 0,0
14.06.2019 14:00:00 12,8 8,3 0,2
14.06.2019 13:00:00 12,4 6,1 0,0

tt = temperature
td = dewpoint
rr = precipitation

Next stations